createdAt,value
2019-01-14T00:01:18.044Z,98000.25
2019-01-14T00:03:57.799Z,98006.16
2019-01-14T00:06:34.253Z,98008.39
2019-01-14T00:09:10.995Z,98008.86
2019-01-14T00:11:41.520Z,98040.09
2019-01-14T00:14:11.890Z,98044.29
2019-01-14T00:16:54.534Z,98048.48
2019-01-14T00:19:26.723Z,98057.42
2019-01-14T00:22:03.036Z,98057.92
2019-01-14T00:24:34.421Z,98076.31
2019-01-14T00:27:25.863Z,98066.95
2019-01-14T00:29:59.109Z,98076.70
2019-01-14T00:32:31.143Z,98077.81
2019-01-14T00:35:05.080Z,98079.52
2019-01-14T00:37:45.665Z,98082.95
2019-01-14T00:40:21.789Z,98097.36
2019-01-14T00:42:52.282Z,98101.13
2019-01-14T00:45:22.624Z,98103.68
2019-01-14T00:47:53.543Z,98102.45
2019-01-14T00:50:25.447Z,98101.20
2019-01-14T00:52:55.929Z,98118.30
2019-01-14T00:55:27.561Z,98126.93
2019-01-14T00:57:58.032Z,98119.95
2019-01-14T01:00:28.709Z,98138.98
2019-01-14T01:03:01.916Z,98145.36
2019-01-14T01:05:39.904Z,98162.25
2019-01-14T01:08:16.707Z,98164.10
2019-01-14T01:10:52.463Z,98167.23
2019-01-14T01:13:22.911Z,98174.09
2019-01-14T01:15:56.367Z,98186.37
2019-01-14T01:18:26.783Z,98187.55
2019-01-14T01:21:02.551Z,98184.18
2019-01-14T01:23:38.211Z,98190.69
2019-01-14T01:26:10.906Z,98219.53
2019-01-14T01:28:51.344Z,98206.99
2019-01-14T01:31:21.671Z,98217.37
2019-01-14T01:33:55.230Z,98225.33
2019-01-14T01:36:31.866Z,98241.11
2019-01-14T01:39:09.762Z,98241.65
2019-01-14T01:41:43.243Z,98239.63
2019-01-14T01:44:16.754Z,98249.61
2019-01-14T01:46:50.562Z,98253.08
2019-01-14T01:49:27.281Z,98271.82
2019-01-14T01:51:57.585Z,98269.05
2019-01-14T01:54:30.634Z,98270.82
2019-01-14T01:57:01.269Z,98282.59
2019-01-14T01:59:34.855Z,98293.14
2019-01-14T02:02:05.388Z,98295.69
2019-01-14T02:04:36.072Z,98306.75
2019-01-14T02:07:09.488Z,98313.59
2019-01-14T02:09:42.384Z,98322.29
2019-01-14T02:12:15.715Z,98315.23
2019-01-14T02:14:46.379Z,98327.07
2019-01-14T02:17:16.958Z,98331.92
2019-01-14T02:19:49.228Z,98342.05
2019-01-14T02:22:21.664Z,98349.11
2019-01-14T02:24:53.749Z,98344.39
2019-01-14T02:27:25.595Z,98350.37
2019-01-14T02:29:59.352Z,98352.64
2019-01-14T02:32:33.038Z,98370.70
2019-01-14T02:35:05.408Z,98365.34
2019-01-14T02:37:39.429Z,98377.20
2019-01-14T02:40:15.906Z,98386.98
2019-01-14T02:42:49.674Z,98397.80
2019-01-14T02:45:19.983Z,98373.81
2019-01-14T02:47:50.326Z,98397.36
2019-01-14T02:50:22.832Z,98400.60
2019-01-14T02:52:52.917Z,98397.06
2019-01-14T02:55:23.520Z,98407.08
2019-01-14T02:57:57.569Z,98409.56
2019-01-14T03:00:28.825Z,98417.28
2019-01-14T03:03:01.771Z,98417.05
2019-01-14T03:05:33.743Z,98418.03
2019-01-14T03:08:04.204Z,98419.78
2019-01-14T03:10:34.488Z,98421.64
2019-01-14T03:13:05.209Z,98432.66
2019-01-14T03:15:37.101Z,98441.05
2019-01-14T03:18:07.657Z,98451.08
2019-01-14T03:20:38.049Z,98458.32
2019-01-14T03:23:08.461Z,98456.98
2019-01-14T03:25:38.874Z,98459.19
2019-01-14T03:28:12.458Z,98470.77
2019-01-14T03:30:42.863Z,98469.77
2019-01-14T03:33:13.181Z,98487.78
2019-01-14T03:35:43.702Z,98499.59
2019-01-14T03:38:15.323Z,98502.13
2019-01-14T03:40:46.941Z,98524.69
2019-01-14T03:43:17.314Z,98518.64
2019-01-14T03:45:51.047Z,98535.38
2019-01-14T03:48:21.965Z,98535.06
2019-01-14T03:50:54.841Z,98538.47
2019-01-14T03:53:25.287Z,98530.77
2019-01-14T03:55:55.599Z,98563.27
2019-01-14T03:58:32.956Z,98572.52
2019-01-14T04:01:04.162Z,98591.56
2019-01-14T04:03:34.419Z,98581.47
2019-01-14T04:06:04.990Z,98607.72
2019-01-14T04:08:37.538Z,98606.78
2019-01-14T04:11:08.173Z,98617.77
2019-01-14T04:13:41.132Z,98613.05
2019-01-14T04:16:11.450Z,98619.61
2019-01-14T04:18:41.792Z,98615.31
2019-01-14T04:21:12.501Z,98636.31
2019-01-14T04:23:44.233Z,98639.36
2019-01-14T04:26:20.034Z,98650.42
2019-01-14T04:28:53.254Z,98658.45
2019-01-14T04:31:26.449Z,98670.25
2019-01-14T04:33:56.770Z,98670.00
2019-01-14T04:36:29.137Z,98686.89
2019-01-14T04:38:59.967Z,98690.66
2019-01-14T04:41:30.548Z,98690.13
2019-01-14T04:44:00.923Z,98676.59
2019-01-14T04:46:34.933Z,98715.27
2019-01-14T04:49:12.208Z,98703.53
2019-01-14T04:51:42.778Z,98731.02
2019-01-14T04:54:14.776Z,98726.48
2019-01-14T04:56:45.449Z,98725.96
2019-01-14T04:59:15.858Z,98734.56
2019-01-14T05:01:47.537Z,98733.00
2019-01-14T05:04:20.472Z,98738.89
2019-01-14T05:06:54.487Z,98747.76
2019-01-14T05:09:27.773Z,98764.06
2019-01-14T05:11:58.111Z,98767.72
2019-01-14T05:14:28.743Z,98778.14
2019-01-14T05:16:59.344Z,98790.39
2019-01-14T05:19:31.677Z,98784.91
2019-01-14T05:22:01.949Z,98792.36
2019-01-14T05:24:32.327Z,98792.14
2019-01-14T05:27:02.619Z,98807.05
2019-01-14T05:29:35.966Z,98791.03
2019-01-14T05:32:08.394Z,98793.02
2019-01-14T05:34:39.010Z,98800.58
2019-01-14T05:37:09.344Z,98799.64
2019-01-14T05:39:40.233Z,98800.85
2019-01-14T05:42:10.535Z,98803.84
2019-01-14T05:44:40.885Z,98805.23
2019-01-14T05:47:11.272Z,98809.94
2019-01-14T05:49:44.988Z,98813.84
2019-01-14T05:52:26.383Z,98810.67
2019-01-14T05:54:57.041Z,98804.81
2019-01-14T05:57:27.400Z,98812.27
2019-01-14T05:59:58.043Z,98813.06
2019-01-14T06:02:46.684Z,98800.97
2019-01-14T06:05:34.905Z,98801.01
2019-01-14T06:08:21.723Z,98819.99
2019-01-14T06:11:06.024Z,98811.33
2019-01-14T06:13:53.396Z,98809.36
2019-01-14T06:16:24.028Z,98813.69
2019-01-14T06:18:54.759Z,98799.20
2019-01-14T06:21:27.838Z,98807.53
2019-01-14T06:24:01.208Z,98796.34
2019-01-14T06:26:31.760Z,98809.20
2019-01-14T06:29:02.316Z,98811.02
2019-01-14T06:31:35.018Z,98810.14
2019-01-14T06:34:05.473Z,98818.94
2019-01-14T06:36:36.983Z,98822.02
2019-01-14T06:39:12.052Z,98833.34
2019-01-14T06:41:42.518Z,98829.32
2019-01-14T06:44:17.141Z,98833.75
2019-01-14T06:46:50.136Z,98844.24
2019-01-14T06:49:22.404Z,98853.09
2019-01-14T06:51:53.286Z,98836.14
2019-01-14T06:54:29.497Z,98856.33
2019-01-14T06:57:00.223Z,98858.52
2019-01-14T06:59:31.677Z,98858.45
2019-01-14T07:02:02.256Z,98865.13
2019-01-14T07:04:33.442Z,98867.67
2019-01-14T07:07:05.239Z,98864.47
2019-01-14T07:09:43.138Z,98887.44
2019-01-14T07:12:12.565Z,98876.88
2019-01-14T07:14:55.392Z,98887.69
2019-01-14T07:17:32.076Z,98904.39
2019-01-14T07:20:02.417Z,98924.38
2019-01-14T07:22:32.988Z,98935.75
2019-01-14T07:25:08.021Z,98932.77
2019-01-14T07:27:42.902Z,98926.72
2019-01-14T07:30:16.454Z,98950.06
2019-01-14T07:32:49.187Z,98967.73
2019-01-14T07:35:22.321Z,98971.64
2019-01-14T07:37:55.277Z,98978.33
2019-01-14T07:40:25.767Z,98974.94
2019-01-14T07:42:56.145Z,98984.70
2019-01-14T07:45:26.648Z,98977.95
2019-01-14T07:47:57.285Z,98977.03
2019-01-14T07:50:28.098Z,98991.47
2019-01-14T07:52:58.449Z,98988.56
2019-01-14T07:55:31.650Z,98999.68
2019-01-14T07:58:03.580Z,99007.34
2019-01-14T08:00:34.436Z,99009.84
2019-01-14T08:03:41.726Z,99004.73
2019-01-14T08:06:12.259Z,99011.21
2019-01-14T08:08:48.484Z,99013.14
2019-01-14T08:11:25.418Z,99021.95
2019-01-14T08:13:59.053Z,99037.02
2019-01-14T08:16:30.210Z,99035.62
2019-01-14T08:19:07.753Z,99048.20
2019-01-14T08:21:41.394Z,99029.30
2019-01-14T08:24:12.964Z,99030.25
2019-01-14T08:26:43.890Z,99049.72
2019-01-14T08:29:19.803Z,99046.59
2019-01-14T08:31:59.193Z,99037.88
2019-01-14T08:34:31.384Z,99060.56
2019-01-14T08:37:02.198Z,99058.11
2019-01-14T08:39:32.637Z,99066.38
2019-01-14T08:42:03.987Z,99065.64
2019-01-14T08:44:43.925Z,99074.67
2019-01-14T08:47:16.122Z,99072.29
2019-01-14T08:49:49.103Z,99083.20
2019-01-14T08:52:27.167Z,99078.45
2019-01-14T08:55:06.151Z,99083.40
2019-01-14T08:57:37.200Z,99075.06
2019-01-14T09:00:16.578Z,99080.55
2019-01-14T09:02:49.232Z,99087.38
2019-01-14T09:05:24.658Z,99086.27
2019-01-14T09:07:57.527Z,99087.16
2019-01-14T09:10:30.989Z,99102.31
2019-01-14T09:13:00.962Z,99092.70
2019-01-14T09:15:32.021Z,99117.13
2019-01-14T09:18:02.980Z,99111.19
2019-01-14T09:20:33.126Z,99113.81
2019-01-14T09:23:03.762Z,99117.13
2019-01-14T09:25:36.726Z,99119.02
2019-01-14T09:28:07.346Z,99115.83
2019-01-14T09:30:40.908Z,99109.58
2019-01-14T09:33:10.809Z,99120.38
2019-01-14T09:35:40.970Z,99126.41
2019-01-14T09:38:13.686Z,99127.26
2019-01-14T09:40:47.206Z,99129.00
2019-01-14T09:43:23.455Z,99127.75
2019-01-14T09:46:09.652Z,99130.68
2019-01-14T09:52:30.744Z,99130.84
2019-01-14T09:55:05.697Z,99128.94
2019-01-14T09:57:37.370Z,99121.27
2019-01-14T10:00:36.420Z,99120.08
2019-01-14T10:03:25.862Z,99118.55
2019-01-14T10:05:56.558Z,99124.91
2019-01-14T10:08:26.998Z,99130.23
2019-01-14T10:10:57.784Z,99142.92
2019-01-14T10:13:34.239Z,99144.73
2019-01-14T10:16:37.073Z,99140.01
2019-01-14T10:19:09.083Z,99132.53
2019-01-14T10:21:57.534Z,99134.79
2019-01-14T10:24:34.926Z,99138.67
2019-01-14T10:27:07.204Z,99136.72
2019-01-14T10:29:47.589Z,99119.59
2019-01-14T10:32:18.281Z,99119.44
2019-01-14T10:34:49.089Z,99101.05
2019-01-14T10:37:22.907Z,99126.94
2019-01-14T10:39:54.133Z,99113.27
2019-01-14T10:42:24.809Z,99123.40
2019-01-14T10:44:55.305Z,99121.90
2019-01-14T10:47:27.927Z,99126.82
2019-01-14T10:50:09.368Z,99120.71
2019-01-14T10:52:44.852Z,99113.64
2019-01-14T10:55:23.395Z,99119.66
2019-01-14T10:58:03.395Z,99129.91
2019-01-14T11:00:39.076Z,99130.00
2019-01-14T11:03:16.208Z,99134.39
2019-01-14T11:05:47.062Z,99127.01
2019-01-14T11:08:23.860Z,99132.86
2019-01-14T11:10:56.705Z,99136.39
2019-01-14T11:13:27.195Z,99138.48
2019-01-14T11:16:00.691Z,99119.44
2019-01-14T11:18:31.690Z,99132.06
2019-01-14T11:21:07.928Z,99127.41
2019-01-14T11:23:41.535Z,99140.15
2019-01-14T11:26:13.831Z,99140.32
2019-01-14T11:28:45.463Z,99133.63
2019-01-14T11:31:16.454Z,99121.26
2019-01-14T11:33:48.838Z,99123.38
2019-01-14T11:36:23.563Z,99134.58
2019-01-14T11:38:55.324Z,99126.02
2019-01-14T11:41:37.631Z,99138.09
2019-01-14T11:44:13.316Z,99139.39
2019-01-14T11:46:49.961Z,99130.98
2019-01-14T11:49:28.007Z,99132.66
2019-01-14T11:52:00.783Z,99139.59
2019-01-14T11:54:38.917Z,99138.94
2019-01-14T11:57:09.564Z,99146.14
2019-01-14T11:59:42.879Z,99133.09
2019-01-14T12:02:22.215Z,99152.23
2019-01-14T12:06:20.224Z,99161.38
2019-01-14T12:08:32.187Z,99147.41
2019-01-14T12:11:10.014Z,99164.13
2019-01-14T12:13:56.476Z,99163.78
2019-01-14T12:16:30.599Z,99166.27
2019-01-14T12:19:18.436Z,99166.70
2019-01-14T12:21:51.015Z,99159.53
2019-01-14T12:24:29.455Z,99159.86
2019-01-14T12:27:11.229Z,99155.37
2019-01-14T12:29:51.663Z,99156.05
2019-01-14T12:32:28.902Z,99159.36
2019-01-14T12:35:04.201Z,99194.20
2019-01-14T12:37:46.458Z,99258.64
2019-01-14T12:40:20.195Z,99250.11
2019-01-14T12:42:58.498Z,99258.64
2019-01-14T12:47:09.284Z,99259.96
2019-01-14T12:54:51.547Z,99238.29
2019-01-14T12:58:20.310Z,99231.95
2019-01-14T13:12:27.843Z,99242.47
2019-01-14T13:15:23.895Z,99245.10
2019-01-14T13:18:48.540Z,99236.34
2019-01-14T13:21:47.614Z,99239.09
2019-01-14T13:24:22.816Z,99244.98
2019-01-14T13:27:08.338Z,99245.73
2019-01-14T13:29:41.067Z,99246.91
2019-01-14T13:32:22.269Z,99256.52
2019-01-14T13:39:52.523Z,99279.22
2019-01-14T13:46:55.571Z,99285.00
2019-01-14T13:49:23.811Z,99317.57
2019-01-14T13:52:20.155Z,99296.11
2019-01-14T13:54:59.798Z,99327.12
2019-01-14T13:57:35.157Z,99336.66
2019-01-14T14:00:26.080Z,99341.68
2019-01-14T14:03:00.678Z,99342.99
2019-01-14T14:05:39.770Z,99354.39
2019-01-14T14:08:17.999Z,99346.92
2019-01-14T14:10:56.907Z,99361.78
2019-01-14T14:13:27.543Z,99372.36
2019-01-14T14:16:01.436Z,99395.51
2019-01-14T14:18:37.440Z,99396.72
2019-01-14T14:21:09.995Z,99415.28
2019-01-14T14:23:45.853Z,99412.57
2019-01-14T14:26:34.609Z,99408.32
2019-01-14T14:29:42.329Z,99401.88
2019-01-14T14:32:19.371Z,99398.95
2019-01-14T14:34:50.214Z,99399.43
2019-01-14T14:37:20.907Z,99406.72
2019-01-14T14:39:53.838Z,99407.30
2019-01-14T14:42:26.325Z,99416.33
2019-01-14T14:44:57.099Z,99415.20
2019-01-14T14:47:31.053Z,99417.85
2019-01-14T14:50:01.941Z,99415.39
2019-01-14T14:52:34.619Z,99416.34
2019-01-14T14:55:08.699Z,99433.71
2019-01-14T14:57:54.163Z,99429.68
2019-01-14T15:00:35.030Z,99438.16
2019-01-14T15:03:04.647Z,99445.35
2019-01-14T15:05:39.429Z,99447.70
2019-01-14T15:08:25.719Z,99448.22
2019-01-14T15:11:32.915Z,99449.12
2019-01-14T15:19:29.581Z,99452.72
2019-01-14T15:22:03.054Z,99466.50
2019-01-14T15:24:33.828Z,99482.53
2019-01-14T15:27:07.303Z,99484.02
2019-01-14T15:30:01.248Z,99494.39
2019-01-14T15:32:32.153Z,99489.77
2019-01-14T15:35:08.466Z,99495.33
2019-01-14T15:37:42.164Z,99502.64
2019-01-14T15:40:17.559Z,99503.39
2019-01-14T15:42:49.050Z,99515.70
2019-01-14T15:45:28.577Z,99517.34
2019-01-14T15:48:20.802Z,99522.30
2019-01-14T15:51:14.558Z,99525.19
2019-01-14T15:53:46.566Z,99534.91
2019-01-14T15:56:23.318Z,99542.38
2019-01-14T15:58:54.693Z,99554.31
2019-01-14T16:01:35.541Z,99555.56
2019-01-14T16:04:16.890Z,99561.79
2019-01-14T16:06:56.306Z,99574.23
2019-01-14T16:09:32.835Z,99585.36
2019-01-14T16:12:08.325Z,99588.14
2019-01-14T16:15:03.251Z,99605.11
2019-01-14T16:18:13.931Z,99596.72
2019-01-14T16:20:56.081Z,99607.67
2019-01-14T16:24:15.096Z,99617.34
2019-01-14T16:27:02.063Z,99628.97
2019-01-14T16:29:37.178Z,99637.12
2019-01-14T16:32:22.826Z,99645.78
2019-01-14T16:36:29.876Z,99646.92
2019-01-14T16:37:32.619Z,99647.39
2019-01-14T16:40:07.645Z,99646.88
2019-01-14T16:42:39.134Z,99651.72
2019-01-14T16:45:18.448Z,99647.36
2019-01-14T16:47:52.068Z,99654.81
2019-01-14T16:50:28.925Z,99659.59
2019-01-14T16:53:00.181Z,99658.99
2019-01-14T16:55:42.097Z,99657.03
2019-01-14T16:58:16.441Z,99665.20
2019-01-14T17:00:49.463Z,99665.59
2019-01-14T17:03:20.665Z,99667.05
2019-01-14T17:05:52.115Z,99684.96
2019-01-14T17:08:30.267Z,99676.31
2019-01-14T17:11:01.729Z,99682.94
2019-01-14T17:14:00.780Z,99685.19
2019-01-14T17:16:40.793Z,99692.53
2019-01-14T17:19:21.166Z,99696.80
2019-01-14T17:21:51.966Z,99702.09
2019-01-14T17:24:25.613Z,99703.03
2019-01-14T17:26:59.445Z,99706.23
2019-01-14T17:29:38.657Z,99717.15
2019-01-14T17:32:12.924Z,99720.50
2019-01-14T17:34:50.026Z,99726.24
2019-01-14T17:37:19.689Z,99734.55
2019-01-14T17:40:03.434Z,99736.81
2019-01-14T17:42:48.356Z,99745.91
2019-01-14T17:45:23.243Z,99743.86
2019-01-14T17:47:56.658Z,99751.11
2019-01-14T17:50:29.968Z,99757.73
2019-01-14T17:53:14.496Z,99756.39
2019-01-14T17:55:48.247Z,99762.98
2019-01-14T17:58:21.401Z,99766.56
2019-01-14T18:00:55.851Z,99776.11
2019-01-14T18:03:29.978Z,99788.23
2019-01-14T18:06:01.913Z,99785.52
2019-01-14T18:08:36.676Z,99795.58
2019-01-14T18:11:12.802Z,99790.24
2019-01-14T18:13:43.459Z,99791.45
2019-01-14T18:16:42.492Z,99797.91
2019-01-14T18:19:21.240Z,99801.10
2019-01-14T18:25:04.954Z,99806.30
2019-01-14T18:27:54.561Z,99809.05
2019-01-14T18:30:39.734Z,99803.69
2019-01-14T18:33:10.831Z,99814.22
2019-01-14T18:35:51.558Z,99820.73
2019-01-14T18:38:48.739Z,99829.68
2019-01-14T18:41:42.200Z,99830.23
2019-01-14T18:44:17.605Z,99824.95
2019-01-14T18:46:57.455Z,99840.90
2019-01-14T18:50:02.058Z,99842.56
2019-01-14T18:52:41.935Z,99846.19
2019-01-14T18:55:18.668Z,99851.95
2019-01-14T18:57:53.928Z,99857.86
2019-01-14T19:00:29.234Z,99865.02
2019-01-14T19:03:01.795Z,99865.70
2019-01-14T19:05:33.746Z,99873.42
2019-01-14T19:08:07.153Z,99878.22
2019-01-14T19:10:41.269Z,99883.48
2019-01-14T19:13:16.884Z,99879.41
2019-01-14T19:15:59.245Z,99881.97
2019-01-14T19:18:35.023Z,99876.02
2019-01-14T19:21:11.474Z,99883.36
2019-01-14T19:23:51.166Z,99893.03
2019-01-14T19:26:25.115Z,99886.66
2019-01-14T19:29:40.460Z,99890.23
2019-01-14T19:32:17.708Z,99899.94
2019-01-14T19:34:49.639Z,99902.59
2019-01-14T19:37:25.878Z,99903.03
2019-01-14T19:40:12.665Z,99908.86
2019-01-14T19:42:58.980Z,99904.91
2019-01-14T19:45:36.300Z,99915.59
2019-01-14T19:48:06.677Z,99915.25
2019-01-14T19:50:46.223Z,99920.50
2019-01-14T19:53:19.401Z,99913.12
2019-01-14T19:55:53.937Z,99919.14
2019-01-14T20:01:42.337Z,99922.81
2019-01-14T20:04:14.838Z,99922.31
2019-01-14T20:06:49.941Z,99930.71
2019-01-14T20:09:27.609Z,99935.38
2019-01-14T20:11:59.631Z,99936.62
2019-01-14T20:14:32.076Z,99934.91
2019-01-14T20:17:10.475Z,99936.91
2019-01-14T20:19:43.321Z,99932.98
2019-01-14T20:22:13.898Z,99939.17
2019-01-14T20:24:47.585Z,99944.30
2019-01-14T20:27:30.664Z,99944.23
2019-01-14T20:30:05.569Z,99945.17
2019-01-14T20:35:32.036Z,99953.66
2019-01-14T20:38:10.412Z,99951.64
2019-01-14T20:40:41.571Z,99956.36
2019-01-14T20:43:33.661Z,99963.50
2019-01-14T20:46:08.390Z,99964.27
2019-01-14T20:48:42.420Z,99973.55
2019-01-14T20:51:13.015Z,99970.75
2019-01-14T20:53:56.898Z,99963.89
2019-01-14T20:56:27.882Z,99963.78
2019-01-14T20:59:03.069Z,99954.58
2019-01-14T21:01:37.625Z,99949.30
2019-01-14T21:04:13.419Z,99965.33
2019-01-14T21:06:49.615Z,99961.99
2019-01-14T21:09:23.876Z,99962.75
2019-01-14T21:11:57.579Z,99973.47
2019-01-14T21:14:36.018Z,99980.80
2019-01-14T21:17:12.471Z,99974.15
2019-01-14T21:19:46.993Z,99974.59
2019-01-14T21:22:21.169Z,99978.20
2019-01-14T21:25:11.155Z,99990.45
2019-01-14T21:28:04.744Z,99982.68
2019-01-14T21:30:35.241Z,99984.81
2019-01-14T21:33:05.904Z,99977.13
2019-01-14T21:35:39.918Z,99982.77
2019-01-14T21:38:13.007Z,99983.88
2019-01-14T21:40:43.508Z,99981.55
2019-01-14T21:43:14.109Z,99987.89
2019-01-14T21:45:51.625Z,99981.12
2019-01-14T21:48:40.409Z,99977.53
2019-01-14T21:51:11.326Z,99977.73
2019-01-14T21:53:42.475Z,99979.31
2019-01-14T21:56:13.311Z,99967.28
2019-01-14T21:59:03.867Z,99972.48
2019-01-14T22:01:39.095Z,99975.77
2019-01-14T22:04:09.793Z,99979.46
2019-01-14T22:06:43.836Z,99973.66
2019-01-14T22:09:18.525Z,99973.22
2019-01-14T22:11:49.694Z,99970.66
2019-01-14T22:14:24.135Z,99968.80
2019-01-14T22:16:54.749Z,99964.75
2019-01-14T22:19:34.377Z,99967.04
2019-01-14T22:22:05.509Z,99972.02
2019-01-14T22:24:37.503Z,99976.54
2019-01-14T22:27:08.230Z,99978.80
2019-01-14T22:29:43.452Z,99995.02
2019-01-14T22:32:41.948Z,99984.09
2019-01-14T22:35:14.896Z,99985.73
2019-01-14T22:37:53.925Z,99986.70
2019-01-14T22:40:28.173Z,99989.70
2019-01-14T22:42:58.785Z,99982.66
2019-01-14T22:45:40.606Z,99986.53
2019-01-14T22:48:44.379Z,99989.52
2019-01-14T22:51:22.844Z,99995.23
2019-01-14T22:54:13.394Z,99982.58
2019-01-14T22:57:23.329Z,99993.03
2019-01-14T23:01:25.257Z,99990.20
2019-01-14T23:03:54.846Z,99989.06
2019-01-14T23:06:32.530Z,99990.25
2019-01-14T23:09:14.255Z,99999.38
2019-01-14T23:11:53.011Z,100001.34
2019-01-14T23:14:46.704Z,100002.77
2019-01-14T23:17:42.434Z,100004.44
2019-01-14T23:20:25.723Z,99997.42
2019-01-14T23:23:08.252Z,100003.36
2019-01-14T23:25:40.022Z,100007.59
2019-01-14T23:28:14.938Z,100001.98
2019-01-14T23:30:46.437Z,99998.54
2019-01-14T23:33:17.721Z,99993.57
2019-01-14T23:35:53.642Z,100006.81
2019-01-14T23:38:24.633Z,100012.26
2019-01-14T23:40:55.482Z,100013.75
2019-01-14T23:43:35.425Z,100005.17
2019-01-14T23:46:10.407Z,100010.97
2019-01-14T23:48:47.061Z,100015.91
2019-01-14T23:51:44.725Z,100009.25
2019-01-14T23:54:27.599Z,100003.78
2019-01-14T23:57:02.489Z,100000.63
2019-01-14T23:59:33.168Z,100019.51
